createdAt,value
2022-10-07T00:00:43.115Z,101836.40
2022-10-07T00:03:34.279Z,101836.80
2022-10-07T00:06:13.147Z,101834.20
2022-10-07T00:08:50.109Z,101837.40
2022-10-07T00:11:28.182Z,101838.40
2022-10-07T00:14:06.150Z,101836.40
2022-10-07T00:16:42.715Z,101840.00
2022-10-07T00:19:17.770Z,101839.20
2022-10-07T00:21:52.226Z,101840.80
2022-10-07T00:24:26.286Z,101838.80
2022-10-07T00:27:00.262Z,101834.00
2022-10-07T00:29:33.878Z,101833.60
2022-10-07T00:32:07.571Z,101829.60
2022-10-07T00:34:41.431Z,101824.20
2022-10-07T00:37:15.030Z,101823.60
2022-10-07T00:39:49.697Z,101825.60
2022-10-07T00:42:23.805Z,101824.60
2022-10-07T00:44:57.614Z,101824.40
2022-10-07T00:47:36.024Z,101821.80
2022-10-07T00:50:15.470Z,101829.80
2022-10-07T00:52:54.122Z,101825.60
2022-10-07T00:55:31.008Z,101826.80
2022-10-07T00:58:09.480Z,101827.00
2022-10-07T01:00:43.688Z,101820.00
2022-10-07T01:03:18.873Z,101826.40
2022-10-07T01:05:53.169Z,101826.40
2022-10-07T01:08:27.716Z,101820.60
2022-10-07T01:11:17.480Z,101819.40
2022-10-07T01:14:10.240Z,101810.80
2022-10-07T01:16:57.254Z,101810.80
2022-10-07T01:20:02.500Z,101812.80
2022-10-07T01:22:54.661Z,101806.00
2022-10-07T01:25:56.154Z,101800.20
2022-10-07T01:28:35.904Z,101798.40
2022-10-07T01:31:16.206Z,101797.40
2022-10-07T01:33:54.024Z,101797.00
2022-10-07T01:36:31.864Z,101791.60
2022-10-07T01:39:13.350Z,101791.40
2022-10-07T01:41:47.701Z,101791.40
2022-10-07T01:44:22.309Z,101795.80
2022-10-07T01:46:56.926Z,101785.40
2022-10-07T01:49:31.288Z,101788.80
2022-10-07T01:52:27.016Z,101785.60
2022-10-07T01:55:28.614Z,101785.00
2022-10-07T01:58:21.703Z,101784.40
2022-10-07T02:01:08.089Z,101782.20
2022-10-07T02:04:04.106Z,101781.60
2022-10-07T02:06:51.235Z,101772.40
2022-10-07T02:09:35.329Z,101773.00
2022-10-07T02:12:17.277Z,101771.80
2022-10-07T02:15:00.161Z,101772.40
2022-10-07T02:17:39.022Z,101773.20
2022-10-07T02:20:18.344Z,101769.20
2022-10-07T02:22:54.781Z,101768.80
2022-10-07T02:25:33.332Z,101761.60
2022-10-07T02:28:10.729Z,101767.60
2022-10-07T02:30:50.937Z,101770.20
2022-10-07T02:33:30.186Z,101764.40
2022-10-07T02:36:12.014Z,101756.60
2022-10-07T02:38:47.710Z,101756.60
2022-10-07T02:41:35.435Z,101752.80
2022-10-07T02:44:26.435Z,101752.20
2022-10-07T02:47:08.392Z,101751.60
2022-10-07T02:49:46.031Z,101754.60
2022-10-07T02:52:23.369Z,101752.60
2022-10-07T02:55:03.789Z,101755.80
2022-10-07T02:57:43.609Z,101748.40
2022-10-07T03:00:19.069Z,101750.40
2022-10-07T03:03:01.557Z,101751.40
2022-10-07T03:05:45.365Z,101749.00
2022-10-07T03:08:21.591Z,101744.00
2022-10-07T03:10:55.379Z,101737.00
2022-10-07T03:13:29.236Z,101739.20
2022-10-07T03:16:05.867Z,101733.80
2022-10-07T03:18:40.448Z,101738.00
2022-10-07T03:21:22.970Z,101738.20
2022-10-07T03:24:04.749Z,101739.80
2022-10-07T03:26:42.281Z,101738.00
2022-10-07T03:29:16.920Z,101734.40
2022-10-07T03:31:51.546Z,101732.20
2022-10-07T03:34:26.881Z,101731.40
2022-10-07T03:37:00.618Z,101727.40
2022-10-07T03:39:34.814Z,101727.60
2022-10-07T03:42:09.006Z,101721.00
2022-10-07T03:44:42.950Z,101722.40
2022-10-07T03:47:16.987Z,101719.00
2022-10-07T03:49:50.686Z,101721.20
2022-10-07T03:52:24.753Z,101724.40
2022-10-07T03:54:59.054Z,101722.80
2022-10-07T03:57:54.393Z,101723.00
2022-10-07T04:00:30.302Z,101722.40
2022-10-07T04:03:04.051Z,101715.40
2022-10-07T04:05:38.191Z,101710.00
2022-10-07T04:08:17.494Z,101707.60
2022-10-07T04:10:51.660Z,101707.40
2022-10-07T04:13:25.559Z,101706.80
2022-10-07T04:16:00.015Z,101703.80
2022-10-07T04:18:33.936Z,101701.80
2022-10-07T04:21:08.208Z,101700.40
2022-10-07T04:23:44.725Z,101696.60
2022-10-07T04:26:18.712Z,101697.60
2022-10-07T04:28:54.804Z,101695.80
2022-10-07T04:31:30.134Z,101687.20
2022-10-07T04:34:10.322Z,101688.00
2022-10-07T04:36:46.487Z,101684.80
2022-10-07T04:39:29.911Z,101684.20
2022-10-07T04:42:30.091Z,101685.40
2022-10-07T04:45:03.876Z,101680.20
2022-10-07T04:47:39.012Z,101677.00
2022-10-07T04:50:13.801Z,101679.60
2022-10-07T04:52:47.956Z,101674.60
2022-10-07T04:55:22.520Z,101678.20
2022-10-07T04:57:56.889Z,101678.80
2022-10-07T05:00:31.153Z,101667.60
2022-10-07T05:03:05.277Z,101672.00
2022-10-07T05:05:42.003Z,101675.60
2022-10-07T05:08:17.294Z,101678.40
2022-10-07T05:10:57.418Z,101675.00
2022-10-07T05:13:32.655Z,101673.60
2022-10-07T05:16:09.575Z,101671.40
2022-10-07T05:18:43.953Z,101670.00
2022-10-07T05:21:19.319Z,101665.40
2022-10-07T05:23:53.639Z,101660.00
2022-10-07T05:26:32.761Z,101657.80
2022-10-07T05:29:07.291Z,101650.40
2022-10-07T05:31:44.788Z,101656.80
2022-10-07T05:34:19.968Z,101655.60
2022-10-07T05:36:53.717Z,101655.80
2022-10-07T05:39:28.491Z,101661.40
2022-10-07T05:42:06.620Z,101658.80
2022-10-07T05:44:45.149Z,101654.00
2022-10-07T05:47:20.419Z,101658.40
2022-10-07T05:49:57.441Z,101652.40
2022-10-07T05:52:32.106Z,101646.00
2022-10-07T05:55:07.935Z,101647.60
2022-10-07T05:57:43.535Z,101648.40
2022-10-07T06:00:19.357Z,101647.40
2022-10-07T06:02:56.474Z,101643.40
2022-10-07T06:05:33.048Z,101640.40
2022-10-07T06:08:07.912Z,101641.20
2022-10-07T06:10:59.679Z,101637.80
2022-10-07T06:13:34.458Z,101632.20
2022-10-07T06:16:11.707Z,101632.00
2022-10-07T06:18:47.961Z,101633.00
2022-10-07T06:21:28.345Z,101638.40
2022-10-07T06:24:07.680Z,101629.60
2022-10-07T06:26:42.340Z,101630.20
2022-10-07T06:29:20.518Z,101631.80
2022-10-07T06:31:55.543Z,101631.00
2022-10-07T06:34:30.911Z,101629.60
2022-10-07T07:27:57.575Z,101577.20
2022-10-07T07:30:34.904Z,101571.40
2022-10-07T07:33:09.451Z,101570.40
2022-10-07T07:35:46.385Z,101568.40
2022-10-07T07:38:25.537Z,101564.20
2022-10-07T07:41:05.147Z,101563.80
2022-10-07T07:43:39.449Z,101556.20
2022-10-07T07:46:18.424Z,101555.80
2022-10-07T07:49:00.176Z,101549.60
2022-10-07T07:51:36.883Z,101551.00
2022-10-07T07:54:15.163Z,101544.60
2022-10-07T07:56:51.378Z,101540.80
2022-10-07T07:59:26.638Z,101535.80
2022-10-07T08:02:02.696Z,101530.20
2022-10-07T08:04:37.155Z,101531.00
2022-10-07T08:07:13.583Z,101522.40
2022-10-07T08:09:50.505Z,101518.00
2022-10-07T08:12:26.427Z,101515.00
2022-10-07T08:15:03.460Z,101507.80
2022-10-07T08:17:37.825Z,101501.80
2022-10-07T08:20:15.424Z,101497.40
2022-10-07T08:22:50.569Z,101486.80
2022-10-07T08:25:28.361Z,101485.20
2022-10-07T08:28:03.562Z,101485.00
2022-10-07T08:30:38.202Z,101485.20
2022-10-07T08:33:12.300Z,101482.40
2022-10-07T08:35:50.524Z,101479.40
2022-10-07T08:38:24.971Z,101478.60
2022-10-07T08:41:01.902Z,101474.40
2022-10-07T08:43:49.358Z,101464.80
2022-10-07T08:46:34.597Z,101457.00
2022-10-07T08:49:15.685Z,101453.20
2022-10-07T08:51:56.701Z,101442.80
2022-10-07T08:54:43.482Z,101437.60
2022-10-07T08:57:29.964Z,101436.80
2022-10-07T09:00:11.473Z,101431.60
2022-10-07T09:03:06.710Z,101430.00
2022-10-07T09:05:46.113Z,101429.00
2022-10-07T09:08:32.644Z,101422.80
2022-10-07T09:11:17.295Z,101417.20
2022-10-07T09:14:00.997Z,101411.20
2022-10-07T09:16:40.323Z,101412.40
2022-10-07T09:19:23.935Z,101409.40
2022-10-07T09:22:05.397Z,101403.40
2022-10-07T09:24:40.237Z,101394.20
2022-10-07T09:27:20.232Z,101395.80
2022-10-07T09:29:54.160Z,101391.20
2022-10-07T09:32:28.207Z,101389.40
2022-10-07T09:38:04.591Z,101380.60
2022-10-07T09:40:58.276Z,101371.20
2022-10-07T09:43:36.732Z,101368.60
2022-10-07T09:46:55.837Z,101361.40
2022-10-07T09:49:43.989Z,101355.20
2022-10-07T09:52:26.697Z,101357.60
2022-10-07T09:55:35.863Z,101349.20
2022-10-07T09:58:22.835Z,101345.40
2022-10-07T10:00:59.351Z,101340.80
2022-10-07T10:03:38.110Z,101336.40
2022-10-07T10:06:13.475Z,101332.20
2022-10-07T10:08:56.714Z,101325.00
2022-10-07T10:11:32.708Z,101320.80
2022-10-07T10:14:45.394Z,101313.20
2022-10-07T10:17:39.408Z,101306.20
2022-10-07T10:20:39.941Z,101303.80
2022-10-07T10:26:34.177Z,101289.40
2022-10-07T10:29:28.587Z,101289.20
2022-10-07T10:32:52.673Z,101284.60
2022-10-07T10:35:32.388Z,101285.60
2022-10-07T10:38:27.251Z,101283.00
2022-10-07T10:41:21.399Z,101283.20
2022-10-07T10:44:26.034Z,101270.40
2022-10-07T10:47:12.860Z,101266.60
2022-10-07T10:50:04.324Z,101257.20
2022-10-07T10:52:59.120Z,101247.00
2022-10-07T10:55:56.268Z,101241.60
2022-10-07T10:58:52.968Z,101233.00
2022-10-07T11:01:38.734Z,101233.80
2022-10-07T11:04:42.174Z,101222.00
2022-10-07T11:07:26.177Z,101220.00
2022-10-07T11:10:04.445Z,101211.40
2022-10-07T11:12:47.402Z,101204.20
2022-10-07T11:15:30.346Z,101199.80
2022-10-07T11:18:09.184Z,101193.20
2022-10-07T11:20:48.516Z,101183.20
2022-10-07T11:23:33.027Z,101181.40
2022-10-07T11:26:15.682Z,101178.00
2022-10-07T11:28:51.152Z,101176.20
2022-10-07T11:31:35.555Z,101170.60
2022-10-07T11:34:24.202Z,101162.60
2022-10-07T11:37:06.183Z,101159.20
2022-10-07T11:39:42.886Z,101153.20
2022-10-07T11:42:24.157Z,101148.60
2022-10-07T11:45:04.391Z,101143.00
2022-10-07T11:47:43.909Z,101132.20
2022-10-07T11:50:25.928Z,101128.60
2022-10-07T11:53:10.671Z,101125.60
2022-10-07T11:55:55.045Z,101116.00
2022-10-07T11:58:37.242Z,101112.60
2022-10-07T12:01:52.699Z,101109.40
2022-10-07T12:04:43.412Z,101103.40
2022-10-07T12:08:00.903Z,101094.80
2022-10-07T12:10:36.911Z,101083.40
2022-10-07T12:13:42.610Z,101082.80
2022-10-07T12:16:56.354Z,101080.20
2022-10-07T12:19:30.329Z,101073.20
2022-10-07T12:22:23.429Z,101069.60
2022-10-07T12:25:33.248Z,101070.00
2022-10-07T12:28:14.567Z,101064.60
2022-10-07T12:30:56.443Z,101061.80
2022-10-07T12:33:43.104Z,101058.40
2022-10-07T12:36:37.039Z,101047.20
2022-10-07T12:39:39.719Z,101048.60
2022-10-07T12:42:18.542Z,101035.20
2022-10-07T12:44:53.896Z,101029.60
2022-10-07T12:47:32.966Z,101030.00
2022-10-07T12:50:12.798Z,101021.40
2022-10-07T12:52:54.866Z,101020.00
2022-10-07T12:55:37.699Z,101012.80
2022-10-07T12:58:54.028Z,101014.60
2022-10-07T13:01:47.893Z,101004.60
2022-10-07T13:05:00.497Z,101005.20
2022-10-07T13:08:13.429Z,100996.60
2022-10-07T13:11:30.532Z,100991.20
2022-10-07T13:14:14.040Z,100988.80
2022-10-07T13:16:55.936Z,100985.60
2022-10-07T13:19:42.588Z,100981.40
2022-10-07T13:22:20.714Z,100978.60
2022-10-07T13:24:58.473Z,100969.60
2022-10-07T13:27:37.325Z,100971.00
2022-10-07T13:30:41.066Z,100967.60
2022-10-07T13:33:28.652Z,100961.00
2022-10-07T13:36:19.189Z,100952.80
2022-10-07T13:38:57.457Z,100950.60
2022-10-07T13:41:36.549Z,100949.20
2022-10-07T13:44:15.778Z,100943.00
2022-10-07T13:47:01.381Z,100938.80
2022-10-07T13:49:43.636Z,100931.40
2022-10-07T13:52:29.278Z,100923.60
2022-10-07T13:55:03.279Z,100921.60
2022-10-07T13:57:44.063Z,100911.60
2022-10-07T14:00:19.643Z,100910.60
2022-10-07T14:02:53.995Z,100903.60
2022-10-07T14:05:31.231Z,100901.40
2022-10-07T14:08:21.384Z,100894.80
2022-10-07T14:11:02.646Z,100891.40
2022-10-07T14:13:38.245Z,100887.40
2022-10-07T14:16:23.295Z,100887.20
2022-10-07T14:18:58.303Z,100887.80
2022-10-07T14:21:35.007Z,100879.80
2022-10-07T14:24:18.299Z,100873.40
2022-10-07T14:26:52.591Z,100876.00
2022-10-07T14:29:39.264Z,100874.40
2022-10-07T14:32:39.330Z,100863.80
2022-10-07T14:35:27.113Z,100860.40
2022-10-07T14:38:29.457Z,100857.80
2022-10-07T14:41:03.485Z,100853.40
2022-10-07T14:43:40.178Z,100847.60
2022-10-07T14:46:20.119Z,100848.80
2022-10-07T14:48:56.620Z,100843.20
2022-10-07T14:51:32.378Z,100837.80
2022-10-07T14:54:09.529Z,100839.00
2022-10-07T14:56:43.331Z,100830.00
2022-10-07T14:59:19.210Z,100825.20
2022-10-07T15:01:54.006Z,100821.80
2022-10-07T15:04:28.247Z,100819.40
2022-10-07T15:07:02.957Z,100815.60
2022-10-07T15:09:37.708Z,100810.40
2022-10-07T15:12:13.106Z,100811.40
2022-10-07T15:14:50.825Z,100809.80
2022-10-07T15:17:25.116Z,100802.60
2022-10-07T15:20:01.632Z,100811.60
2022-10-07T15:22:36.188Z,100806.00
2022-10-07T15:25:15.625Z,100803.80
2022-10-07T15:27:51.857Z,100806.80
2022-10-07T15:30:27.468Z,100809.20
2022-10-07T15:33:02.224Z,100808.40
2022-10-07T15:35:37.700Z,100805.00
2022-10-07T15:38:11.781Z,100804.40
2022-10-07T15:40:58.105Z,100799.40
2022-10-07T15:43:33.903Z,100804.40
2022-10-07T15:46:08.400Z,100801.20
2022-10-07T15:48:42.276Z,100800.20
2022-10-07T15:51:16.534Z,100803.80
2022-10-07T15:53:50.805Z,100803.60
2022-10-07T15:56:26.038Z,100807.00
2022-10-07T15:59:02.359Z,100804.80
2022-10-07T16:01:36.551Z,100805.20
2022-10-07T16:04:15.402Z,100801.40
2022-10-07T16:06:51.717Z,100806.00
2022-10-07T16:09:29.360Z,100811.00
2022-10-07T16:12:05.626Z,100808.00
2022-10-07T16:14:39.946Z,100813.20
2022-10-07T16:17:14.417Z,100809.60
2022-10-07T16:19:49.134Z,100804.40
2022-10-07T16:22:23.193Z,100803.20
2022-10-07T16:24:57.005Z,100798.60
2022-10-07T16:27:51.652Z,100801.80
2022-10-07T16:30:44.188Z,100803.60
2022-10-07T16:33:19.491Z,100808.40
2022-10-07T16:35:53.482Z,100804.40
2022-10-07T16:38:27.429Z,100805.20
2022-10-07T16:41:01.712Z,100804.60
2022-10-07T16:43:36.137Z,100801.80
2022-10-07T16:46:18.580Z,100806.00
2022-10-07T16:48:53.405Z,100805.00
2022-10-07T16:51:30.030Z,100802.00
2022-10-07T16:54:05.663Z,100806.80
2022-10-07T16:56:40.740Z,100801.20
2022-10-07T16:59:22.995Z,100802.00
2022-10-07T17:02:02.655Z,100796.60
2022-10-07T17:04:36.709Z,100802.40
2022-10-07T17:07:11.025Z,100796.60
2022-10-07T17:09:45.001Z,100796.20
2022-10-07T17:12:18.821Z,100796.00
2022-10-07T17:14:52.820Z,100792.80
2022-10-07T17:17:26.690Z,100784.40
2022-10-07T17:20:00.616Z,100782.20
2022-10-07T17:22:35.464Z,100787.60
2022-10-07T17:25:10.644Z,100787.00
2022-10-07T17:27:44.870Z,100785.20
2022-10-07T17:30:19.263Z,100784.00
2022-10-07T17:32:55.507Z,100778.20
2022-10-07T17:35:32.520Z,100778.20
2022-10-07T17:38:08.275Z,100777.20
2022-10-07T17:40:44.000Z,100773.60
2022-10-07T17:43:17.972Z,100769.00
2022-10-07T17:45:51.840Z,100769.40
2022-10-07T17:48:25.892Z,100769.20
2022-10-07T17:51:06.299Z,100767.40
2022-10-07T17:53:41.442Z,100768.60
2022-10-07T17:56:18.121Z,100761.40
2022-10-07T17:58:53.221Z,100759.80
2022-10-07T18:01:31.106Z,100753.80
2022-10-07T18:04:07.840Z,100754.40
2022-10-07T18:06:43.473Z,100749.20
2022-10-07T18:09:19.645Z,100745.00
2022-10-07T18:12:11.268Z,100746.60
2022-10-07T18:15:02.931Z,100747.80
2022-10-07T18:17:37.350Z,100742.80
2022-10-07T18:20:15.268Z,100744.80
2022-10-07T18:22:54.351Z,100749.40
2022-10-07T18:25:28.470Z,100749.20
2022-10-07T18:28:02.869Z,100739.40
2022-10-07T18:30:37.137Z,100740.80
2022-10-07T18:33:10.915Z,100739.40
2022-10-07T18:35:45.002Z,100738.00
2022-10-07T18:38:19.185Z,100730.40
2022-10-07T18:40:53.321Z,100731.40
2022-10-07T18:43:27.281Z,100728.00
2022-10-07T18:46:07.182Z,100726.80
2022-10-07T18:48:44.950Z,100726.00
2022-10-07T18:51:19.975Z,100729.20
2022-10-07T18:53:53.826Z,100727.80
2022-10-07T18:56:29.045Z,100723.20
2022-10-07T18:59:04.893Z,100720.20
2022-10-07T19:01:38.840Z,100717.40
2022-10-07T19:04:13.828Z,100715.80
2022-10-07T19:06:48.043Z,100720.40
2022-10-07T19:09:23.924Z,100719.20
2022-10-07T19:11:58.645Z,100718.60
2022-10-07T19:14:34.926Z,100714.60
2022-10-07T19:17:10.469Z,100711.00
2022-10-07T19:19:44.162Z,100716.00
2022-10-07T19:22:18.306Z,100712.20
2022-10-07T19:25:10.577Z,100715.60
2022-10-07T19:27:45.203Z,100722.20
2022-10-07T19:30:19.783Z,100714.40
2022-10-07T19:32:54.482Z,100715.40
2022-10-07T19:35:31.183Z,100713.60
2022-10-07T19:38:06.313Z,100711.00
2022-10-07T19:40:46.230Z,100705.00
2022-10-07T19:43:20.400Z,100702.00
2022-10-07T19:45:54.880Z,100702.40
2022-10-07T19:48:29.189Z,100701.40
2022-10-07T19:51:04.840Z,100699.60
2022-10-07T19:53:44.484Z,100700.80
2022-10-07T19:56:24.396Z,100694.00
2022-10-07T19:59:02.612Z,100695.80
2022-10-07T20:01:41.589Z,100690.60
2022-10-07T20:04:20.887Z,100693.40
2022-10-07T20:06:55.129Z,100689.80
2022-10-07T20:09:29.276Z,100688.60
2022-10-07T20:12:04.258Z,100690.60
2022-10-07T20:14:38.112Z,100686.80
2022-10-07T20:17:12.336Z,100683.80
2022-10-07T20:19:46.624Z,100681.00
2022-10-07T20:22:20.455Z,100680.80
2022-10-07T20:24:54.303Z,100682.20
2022-10-07T20:27:28.426Z,100678.80
2022-10-07T20:30:07.562Z,100681.40
2022-10-07T20:32:41.566Z,100677.40
2022-10-07T20:35:15.453Z,100674.60
2022-10-07T20:37:49.719Z,100669.40
2022-10-07T20:40:41.232Z,100669.00
2022-10-07T20:43:15.128Z,100665.20
2022-10-07T20:45:59.514Z,100667.40
2022-10-07T20:48:33.922Z,100660.80
2022-10-07T20:51:12.934Z,100667.00
2022-10-07T20:53:52.185Z,100659.40
2022-10-07T20:56:26.462Z,100655.00
2022-10-07T20:59:01.523Z,100654.60
2022-10-07T21:01:35.845Z,100650.00
2022-10-07T21:04:10.447Z,100647.40
2022-10-07T21:06:47.544Z,100650.20
2022-10-07T21:09:26.353Z,100652.20
2022-10-07T21:12:00.314Z,100655.20
2022-10-07T21:14:34.423Z,100656.20
2022-10-07T21:17:09.722Z,100653.40
2022-10-07T21:19:44.002Z,100647.80
2022-10-07T21:22:17.770Z,100650.40
2022-10-07T21:24:51.565Z,100646.60
2022-10-07T21:27:25.493Z,100642.60
2022-10-07T21:30:00.052Z,100641.20
2022-10-07T21:32:33.711Z,100639.00
2022-10-07T21:35:08.157Z,100640.20
2022-10-07T21:37:42.434Z,100641.40
2022-10-07T21:40:16.521Z,100637.80
2022-10-07T21:42:50.322Z,100635.40
2022-10-07T21:45:24.303Z,100630.20
2022-10-07T21:47:59.343Z,100632.40
2022-10-07T21:50:33.224Z,100630.60
2022-10-07T21:53:07.020Z,100626.40
2022-10-07T21:55:43.675Z,100617.20
2022-10-07T21:58:17.658Z,100615.80
2022-10-07T22:00:51.594Z,100615.00
2022-10-07T22:03:25.454Z,100608.80
2022-10-07T22:06:03.572Z,100608.20
2022-10-07T22:08:38.936Z,100601.60
2022-10-07T22:11:15.689Z,100599.60
2022-10-07T22:13:53.261Z,100594.20
2022-10-07T22:16:27.624Z,100591.20
2022-10-07T22:19:01.896Z,100592.40
2022-10-07T22:21:40.391Z,100585.60
2022-10-07T22:24:15.001Z,100585.80
2022-10-07T22:26:51.489Z,100583.60
2022-10-07T22:29:25.577Z,100580.80
2022-10-07T22:31:59.407Z,100579.80
2022-10-07T22:34:50.790Z,100582.40
2022-10-07T22:37:24.946Z,100583.60
2022-10-07T22:39:58.831Z,100578.40
2022-10-07T22:42:35.519Z,100577.20
2022-10-07T22:45:11.599Z,100570.00
2022-10-07T22:47:45.389Z,100569.20
2022-10-07T22:50:19.866Z,100577.60
2022-10-07T22:52:56.291Z,100571.20
2022-10-07T22:55:30.162Z,100573.40
2022-10-07T22:58:04.313Z,100571.00
2022-10-07T23:00:38.896Z,100569.60
2022-10-07T23:03:12.825Z,100567.40
2022-10-07T23:05:50.501Z,100567.00
2022-10-07T23:08:24.296Z,100564.40
2022-10-07T23:11:02.238Z,100565.00
2022-10-07T23:13:39.564Z,100565.40
2022-10-07T23:16:16.422Z,100564.80
2022-10-07T23:18:52.939Z,100564.60
2022-10-07T23:21:29.524Z,100566.80
2022-10-07T23:24:07.737Z,100563.00
2022-10-07T23:26:44.079Z,100561.20
2022-10-07T23:29:18.989Z,100559.20
2022-10-07T23:31:53.011Z,100556.40
2022-10-07T23:34:27.498Z,100555.20
2022-10-07T23:37:01.861Z,100553.20
2022-10-07T23:39:35.494Z,100548.00
2022-10-07T23:42:09.387Z,100552.20
2022-10-07T23:44:44.290Z,100545.40
2022-10-07T23:47:18.167Z,100554.20
2022-10-07T23:49:51.815Z,100555.80
2022-10-07T23:52:26.126Z,100559.00
2022-10-07T23:54:59.823Z,100559.20
2022-10-07T23:57:33.514Z,100557.80
